Time;durP1;ratioP1;P1;durP2;ratioP2;P2;SDS_P1;SDS_P2;PMS_P1;PMS_P2;Temp;Humidity;BMP_temperature;BMP_pressure;BME280_temperature;BME280_humidity;BME280_pressure;Samples;Min_cycle;Max_cycle;Signal;HPM_P1;HPM_P2
2021/12/31 00:02:10;;;;;;;;;;;;;;;-13.38;57.21;97936.69;6372091;27;19999;-63
2021/12/31 00:05:11;;;;;;;;;;;;;;;-13.34;56.85;97922.47;6372331;27;20004;-63
2021/12/31 00:08:12;;;;;;;;;;;;;;;-13.33;56.97;97919.16;6372041;27;20335;-63
2021/12/31 00:11:13;;;;;;;;;;;;;;;-13.28;57.14;97922.75;6372510;27;19927;-63
2021/12/31 00:14:20;;;;;;;;;;;;;;;-13.28;57.03;97922.75;6372665;27;19923;-63
2021/12/31 00:17:24;;;;;;;;;;;;;;;-13.27;57.37;97908.41;6372675;27;19923;-63
2021/12/31 00:20:26;;;;;;;;;;;;;;;-13.29;56.91;97894.84;6371562;27;19924;-63
2021/12/31 00:23:30;;;;;;;;;;;;;;;-13.27;56.91;97889.03;6372485;27;19923;-63
2021/12/31 00:26:37;;;;;;;;;;;;;;;-13.30;57.21;97882.97;6372464;27;20006;-63
2021/12/31 00:29:39;;;;;;;;;;;;;;;-13.39;57.33;97881.78;6372375;27;19930;-63
2021/12/31 00:32:40;;;;;;;;;;;;;;;-13.43;57.14;97867.25;6372013;27;20304;-63
2021/12/31 00:35:44;;;;;;;;;;;;;;;-13.32;56.95;97865.19;6371348;27;19924;-63
2021/12/31 00:38:45;;;;;;;;;;;;;;;-13.32;57.48;97860.13;6371805;27;20022;-62
2021/12/31 00:41:47;;;;;;;;;;;;;;;-13.30;57.07;97858.53;6371283;27;19929;-63
2021/12/31 00:44:49;;;;;;;;;;;;;;;-13.28;57.44;97859.44;6371517;27;19931;-63
2021/12/31 00:47:50;;;;;;;;;;;;;;;-13.25;57.39;97857.00;6371927;27;19930;-63
2021/12/31 00:50:53;;;;;;;;;;;;;;;-13.32;57.54;97850.00;6371058;27;20312;-63
2021/12/31 00:53:54;;;;;;;;;;;;;;;-13.32;56.71;97852.53;6371114;27;19923;-63
2021/12/31 00:57:02;;;;;;;;;;;;;;;-13.39;57.03;97850.50;6371064;28;20022;-62
2021/12/31 01:00:07;;;;;;;;;;;;;;;-13.32;56.88;97844.94;6371755;27;19923;-63
2021/12/31 01:03:11;;;;;;;;;;;;;;;-13.54;57.03;97832.13;6376371;27;19923;-63
2021/12/31 01:06:12;;;;;;;;;;;;;;;-13.54;57.09;97837.19;6376328;27;19923;-63
2021/12/31 01:09:13;;;;;;;;;;;;;;;-13.64;57.25;97824.13;6376516;27;19923;-63
2021/12/31 01:12:17;;;;;;;;;;;;;;;-13.60;57.46;97831.06;6376796;27;19984;-63
2021/12/31 01:15:37;;;;;;;;;;;;;;;-13.28;56.83;97821.47;6376959;27;19924;-62
2021/12/31 01:21:54;;;;;;;;;;;;;;;-13.57;57.76;97823.59;6375887;27;19923;-63
2021/12/31 01:24:56;;;;;;;;;;;;;;;-13.60;57.39;97831.06;6376530;27;19923;-63
2021/12/31 01:27:57;;;;;;;;;;;;;;;-13.47;57.33;97821.47;6358310;27;20411;-63
2021/12/31 01:31:01;;;;;;;;;;;;;;;-13.48;57.37;97818.06;6376361;27;19927;-63
2021/12/31 01:34:04;;;;;;;;;;;;;;;-13.39;57.87;97822.66;6375327;27;19923;-63
2021/12/31 01:37:06;;;;;;;;;;;;;;;-13.29;57.46;97814.66;6375327;27;19923;-63
2021/12/31 01:40:08;;;;;;;;;;;;;;;-13.33;57.94;97807.75;6374186;27;19982;-63
2021/12/31 01:43:11;;;;;;;;;;;;;;;-13.35;57.39;97800.09;6375374;27;19923;-63
2021/12/31 01:46:12;;;;;;;;;;;;;;;-13.35;57.76;97796.69;6375952;27;19923;-63
2021/12/31 01:49:27;;;;;;;;;;;;;;;-13.25;57.89;97791.16;6375959;27;19923;-63
2021/12/31 01:52:30;;;;;;;;;;;;;;;-13.21;57.40;97787.97;6376085;27;19928;-63
2021/12/31 01:55:34;;;;;;;;;;;;;;;-13.24;57.72;97787.84;6374993;27;20477;-63
2021/12/31 01:58:35;;;;;;;;;;;;;;;-13.24;57.79;97781.94;6374918;27;19923;-62
2021/12/31 02:01:36;;;;;;;;;;;;;;;-13.25;58.08;97781.03;6374769;27;19930;-62
2021/12/31 02:04:40;;;;;;;;;;;;;;;-13.25;57.73;97778.50;6375416;27;19924;-63
2021/12/31 02:07:41;;;;;;;;;;;;;;;-13.16;57.63;97776.38;6375495;27;19923;-63
2021/12/31 02:10:48;;;;;;;;;;;;;;;-13.15;57.75;97778.09;6375543;27;19924;-63
2021/12/31 02:13:49;;;;;;;;;;;;;;;-13.17;57.64;97773.78;6375286;27;20339;-63
2021/12/31 02:16:50;;;;;;;;;;;;;;;-13.13;57.85;97771.44;6356889;27;19968;-63
2021/12/31 02:19:54;;;;;;;;;;;;;;;-13.07;58.13;97762.38;6375353;27;19930;-63
2021/12/31 02:23:05;;;;;;;;;;;;;;;-13.00;58.11;97756.75;6375099;27;19923;-64
2021/12/31 02:26:07;;;;;;;;;;;;;;;-12.99;57.96;97748.31;6356728;27;20381;-63
2021/12/31 02:29:08;;;;;;;;;;;;;;;-13.08;57.46;97748.81;6356270;27;19930;-63
2021/12/31 02:32:12;;;;;;;;;;;;;;;-13.15;57.95;97749.38;6374674;27;19923;-64
2021/12/31 02:35:16;;;;;;;;;;;;;;;-13.16;57.79;97761.19;6374967;27;19930;-63
2021/12/31 02:38:21;;;;;;;;;;;;;;;-13.15;57.91;97746.84;6374920;27;19923;-63
2021/12/31 02:41:22;;;;;;;;;;;;;;;-13.11;58.07;97739.41;6373910;27;19997;-63
2021/12/31 02:44:25;;;;;;;;;;;;;;;-13.03;57.84;97741.41;6355337;27;19930;-63
2021/12/31 02:47:29;;;;;;;;;;;;;;;-13.02;57.87;97738.97;6373934;27;19942;-62
2021/12/31 02:50:34;;;;;;;;;;;;;;;-13.01;57.86;97739.81;6373808;27;20311;-63
2021/12/31 02:53:37;;;;;;;;;;;;;;;-13.03;57.58;97729.59;6373440;27;19946;-63
2021/12/31 02:56:44;;;;;;;;;;;;;;;-12.99;58.26;97728.06;6374527;27;20021;-63
2021/12/31 02:59:48;;;;;;;;;;;;;;;-12.97;58.26;97726.47;6373733;27;20438;-63
2021/12/31 03:02:49;;;;;;;;;;;;;;;-13.12;58.38;97727.56;6373599;27;19931;-63
2021/12/31 03:05:54;;;;;;;;;;;;;;;-13.08;58.01;97722.63;6373312;27;19929;-63
2021/12/31 03:08:58;;;;;;;;;;;;;;;-12.91;58.32;97721.63;6374199;27;19923;-62
2021/12/31 03:12:03;;;;;;;;;;;;;;;-12.86;57.96;97725.22;6373181;27;19930;-63
2021/12/31 03:15:04;;;;;;;;;;;;;;;-13.00;57.88;97726.34;6373012;27;19923;-63
2021/12/31 03:18:06;;;;;;;;;;;;;;;-13.04;57.99;97727.03;6373999;27;19923;-63
2021/12/31 03:21:20;;;;;;;;;;;;;;;-12.94;58.23;97726.59;6373587;27;19924;-64
2021/12/31 03:24:24;;;;;;;;;;;;;;;-12.93;57.94;97729.19;6372565;27;19923;-63
2021/12/31 03:27:25;;;;;;;;;;;;;;;-12.92;58.02;97719.91;6373437;27;19923;-62
2021/12/31 03:30:29;;;;;;;;;;;;;;;-12.94;58.41;97726.59;6373592;27;19931;-63
2021/12/31 03:33:30;;;;;;;;;;;;;;;-12.99;58.15;97733.13;6372509;27;19930;-63
2021/12/31 03:36:32;;;;;;;;;;;;;;;-12.98;58.73;97723.06;6372262;27;20010;-63
2021/12/31 03:39:33;;;;;;;;;;;;;;;-12.86;58.26;97729.44;6373186;27;19927;-63
2021/12/31 03:42:36;;;;;;;;;;;;;;;-12.85;58.03;97721.88;6372495;27;20465;-63
2021/12/31 03:45:40;;;;;;;;;;;;;;;-12.84;58.38;97723.63;6372548;27;19923;-63
2021/12/31 03:48:41;;;;;;;;;;;;;;;-12.78;57.74;97723.84;6372083;27;19923;-63
2021/12/31 03:51:42;;;;;;;;;;;;;;;-12.75;58.42;97718.91;6372791;27;19966;-63
2021/12/31 03:54:46;;;;;;;;;;;;;;;-12.68;58.02;97720.91;6372771;27;20010;-64
2021/12/31 03:57:48;;;;;;;;;;;;;;;-12.72;58.10;97713.97;6371497;27;19923;-63
2021/12/31 04:00:49;;;;;;;;;;;;;;;-12.68;57.57;97728.50;6371976;27;19927;-63
2021/12/31 04:03:50;;;;;;;;;;;;;;;-12.68;58.21;97720.91;6372317;27;19931;-63
2021/12/31 04:06:51;;;;;;;;;;;;;;;-12.61;58.22;97726.19;6372188;27;19929;-64
2021/12/31 04:09:55;;;;;;;;;;;;;;;-12.59;57.97;97719.53;6371531;27;19934;-64
2021/12/31 04:12:56;;;;;;;;;;;;;;;-12.64;58.10;97721.00;6372227;27;19923;-64
2021/12/31 04:15:57;;;;;;;;;;;;;;;-12.63;57.82;97732.88;6372323;27;19930;-63
2021/12/31 04:18:58;;;;;;;;;;;;;;;-12.59;58.09;97725.44;6372135;27;20392;-63
2021/12/31 04:22:01;;;;;;;;;;;;;;;-12.51;58.08;97725.72;6371829;27;20018;-62
2021/12/31 04:25:04;;;;;;;;;;;;;;;-12.42;57.98;97723.56;6372139;27;19923;-63
2021/12/31 04:28:06;;;;;;;;;;;;;;;-12.42;57.69;97723.56;6371466;27;20043;-64
2021/12/31 04:31:07;;;;;;;;;;;;;;;-12.40;57.81;97719.41;6371208;27;19930;-63
2021/12/31 04:34:08;;;;;;;;;;;;;;;-12.37;57.99;97716.97;6371062;27;19923;-63
2021/12/31 04:37:14;;;;;;;;;;;;;;;-12.26;57.54;97710.63;6370223;27;19931;-63
2021/12/31 04:40:15;;;;;;;;;;;;;;;-12.23;57.93;97709.88;6371892;27;19923;-63
2021/12/31 04:43:16;;;;;;;;;;;;;;;-12.17;57.58;97699.09;6371049;27;20018;-63
2021/12/31 04:46:17;;;;;;;;;;;;;;;-12.21;57.41;97699.00;6371849;27;20031;-62
2021/12/31 04:49:21;;;;;;;;;;;;;;;-12.11;57.46;97699.34;6371775;27;19931;-63
2021/12/31 04:52:21;;;;;;;;;;;;;;;-12.16;57.75;97705.94;6371327;27;20353;-64
2021/12/31 04:55:23;;;;;;;;;;;;;;;-12.19;57.83;97710.88;6370786;27;19923;-64
2021/12/31 04:58:26;;;;;;;;;;;;;;;-12.18;57.99;97710.06;6352965;28;19930;-63
2021/12/31 05:01:27;;;;;;;;;;;;;;;-12.13;57.85;97716.19;6371546;28;19930;-64
2021/12/31 05:04:31;;;;;;;;;;;;;;;-12.12;57.96;97722.97;6371481;28;19923;-63
2021/12/31 05:07:35;;;;;;;;;;;;;;;-12.07;57.89;97717.25;6371577;28;19924;-64
2021/12/31 05:10:36;;;;;;;;;;;;;;;-12.09;57.99;97715.47;6371540;28;19928;-63
2021/12/31 05:13:39;;;;;;;;;;;;;;;-12.02;57.67;97714.91;6371414;28;19923;-63
2021/12/31 05:16:43;;;;;;;;;;;;;;;-11.89;57.20;97716.19;6371305;28;19927;-63
2021/12/31 05:19:44;;;;;;;;;;;;;;;-11.87;57.41;97715.44;6370559;28;19924;-63
2021/12/31 05:22:45;;;;;;;;;;;;;;;-11.68;56.89;97711.00;6353046;28;20377;-63
2021/12/31 05:25:46;;;;;;;;;;;;;;;-11.77;56.71;97703.94;6370651;28;20068;-64
2021/12/31 05:28:49;;;;;;;;;;;;;;;-12.04;57.07;97712.28;6371440;28;20396;-63
2021/12/31 05:31:55;;;;;;;;;;;;;;;-11.92;57.54;97699.19;6370993;28;19927;-63
2021/12/31 05:34:56;;;;;;;;;;;;;;;-11.95;57.54;97699.06;6371004;28;19923;-64
2021/12/31 05:38:00;;;;;;;;;;;;;;;-11.94;57.37;97708.44;6371011;28;19924;-63
2021/12/31 05:41:02;;;;;;;;;;;;;;;-11.94;57.48;97702.47;6370118;28;20331;-61
2021/12/31 05:44:04;;;;;;;;;;;;;;;-11.94;57.75;97703.38;6370193;28;20052;-64
2021/12/31 05:47:08;;;;;;;;;;;;;;;-11.95;57.50;97700.75;6371864;27;19924;-63
2021/12/31 05:50:19;;;;;;;;;;;;;;;-11.88;57.63;97700.19;6375024;27;19931;-64
2021/12/31 05:53:20;;;;;;;;;;;;;;;-11.63;57.60;97705.28;6356841;27;20320;-63
2021/12/31 05:56:21;;;;;;;;;;;;;;;-11.55;57.11;97692.81;6375750;27;19923;-64
2021/12/31 05:59:22;;;;;;;;;;;;;;;-11.45;56.89;97694.88;6375612;27;19954;-63
2021/12/31 06:02:23;;;;;;;;;;;;;;;-11.31;56.94;97703.84;6375696;27;19923;-64
2021/12/31 06:05:26;;;;;;;;;;;;;;;-11.27;56.62;97688.69;6374894;27;19972;-62
2021/12/31 06:08:30;;;;;;;;;;;;;;;-11.15;56.44;97691.63;6375343;27;20313;-64
2021/12/31 06:11:32;;;;;;;;;;;;;;;-11.15;56.20;97694.16;6374997;27;19923;-63
2021/12/31 06:14:33;;;;;;;;;;;;;;;-11.21;56.31;97699.06;6375053;27;20400;-64
2021/12/31 06:17:34;;;;;;;;;;;;;;;-11.18;56.36;97686.44;6374912;27;19931;-64
2021/12/31 06:20:36;;;;;;;;;;;;;;;-11.11;56.35;97680.75;6374178;27;19923;-64
2021/12/31 06:23:37;;;;;;;;;;;;;;;-11.02;56.32;97686.13;6374939;27;19930;-65
2021/12/31 06:26:38;;;;;;;;;;;;;;;-10.92;56.13;97677.16;6374657;27;19943;-63
2021/12/31 06:29:39;;;;;;;;;;;;;;;-10.78;55.77;97678.44;6374120;27;19931;-64
2021/12/31 06:32:40;;;;;;;;;;;;;;;-10.72;55.61;97680.31;6373834;27;19925;-63
2021/12/31 06:35:44;;;;;;;;;;;;;;;-10.79;55.75;97668.22;6374415;27;19923;-63
2021/12/31 06:38:47;;;;;;;;;;;;;;;-10.66;55.86;97677.97;6373601;27;19923;-63
2021/12/31 06:41:50;;;;;;;;;;;;;;;-10.36;55.29;97672.06;6373602;27;19923;-64
2021/12/31 06:44:51;;;;;;;;;;;;;;;-10.42;54.88;97676.13;6373667;27;19950;-64
2021/12/31 06:47:55;;;;;;;;;;;;;;;-10.37;55.31;97683.06;6374450;27;19923;-64
2021/12/31 06:50:56;;;;;;;;;;;;;;;-10.36;54.61;97680.53;6373861;27;19923;-64
2021/12/31 06:53:57;;;;;;;;;;;;;;;-10.34;54.82;97672.97;6374369;27;19930;-65
2021/12/31 06:56:58;;;;;;;;;;;;;;;-10.06;54.17;97672.91;6373630;27;19931;-64
2021/12/31 06:59:59;;;;;;;;;;;;;;;-10.14;54.37;97666.75;6372395;27;20404;-64
2021/12/31 07:03:05;;;;;;;;;;;;;;;-10.13;54.43;97663.41;6374042;27;19924;-64
2021/12/31 07:06:06;;;;;;;;;;;;;;;-10.08;54.46;97669.44;6373804;27;20313;-64
2021/12/31 07:09:07;;;;;;;;;;;;;;;-10.00;54.54;97662.91;6373927;27;19923;-63
2021/12/31 07:12:08;;;;;;;;;;;;;;;-9.79;54.08;97664.34;6373400;27;19960;-63
2021/12/31 07:15:12;;;;;;;;;;;;;;;-9.67;53.08;97659.56;6373599;27;19924;-64
2021/12/31 07:18:13;;;;;;;;;;;;;;;-9.74;53.39;97652.56;6373056;27;19923;-64
2021/12/31 07:21:14;;;;;;;;;;;;;;;-9.69;53.59;97653.56;6373289;27;19930;-65
2021/12/31 07:24:18;;;;;;;;;;;;;;;-9.57;53.46;97658.97;6373176;27;20300;-63
2021/12/31 07:27:18;;;;;;;;;;;;;;;-9.53;53.21;97653.16;6372288;27;19924;-66
2021/12/31 07:30:19;;;;;;;;;;;;;;;-9.28;51.52;97654.66;6373440;27;19931;-64
2021/12/31 07:33:24;;;;;;;;;;;;;;;-9.43;51.26;97648.28;6354628;27;19930;-63
2021/12/31 07:36:27;;;;;;;;;;;;;;;-9.73;51.59;97629.69;6372008;27;20342;-64
2021/12/31 07:39:32;;;;;;;;;;;;;;;-10.13;52.70;97630.31;6372470;27;19976;-63
2021/12/31 07:42:33;;;;;;;;;;;;;;;-10.18;53.00;97625.06;6373148;27;19923;-63
2021/12/31 07:45:34;;;;;;;;;;;;;;;-10.17;53.13;97631.88;6371940;27;19923;-64
2021/12/31 07:48:38;;;;;;;;;;;;;;;-10.21;53.85;97629.22;6372070;27;19923;-64
2021/12/31 07:51:42;;;;;;;;;;;;;;;-9.82;53.42;97624.38;6372612;27;19924;-64
2021/12/31 07:54:43;;;;;;;;;;;;;;;-9.60;52.23;97623.22;6371897;27;20389;-64
2021/12/31 07:57:44;;;;;;;;;;;;;;;-9.68;52.25;97617.09;6372331;27;19934;-64
2021/12/31 08:00:47;;;;;;;;;;;;;;;-9.72;52.89;97615.28;6371920;27;20009;-65
2021/12/31 08:03:48;;;;;;;;;;;;;;;-9.72;52.97;97605.09;6373047;27;19923;-65
2021/12/31 08:06:49;;;;;;;;;;;;;;;-9.71;53.28;97596.63;6371883;27;19927;-64
2021/12/31 08:09:50;;;;;;;;;;;;;;;-9.66;53.06;97604.38;6371946;27;19923;-63
2021/12/31 08:12:51;;;;;;;;;;;;;;;-9.58;52.73;97593.56;6371117;27;19923;-64
2021/12/31 08:15:54;;;;;;;;;;;;;;;-9.60;52.78;97595.22;6372139;27;19931;-65
2021/12/31 08:18:55;;;;;;;;;;;;;;;-9.15;51.63;97588.66;6371291;27;19923;-65
2021/12/31 08:21:56;;;;;;;;;;;;;;;-9.49;52.53;97583.59;6370839;27;20014;-65
2021/12/31 08:24:57;;;;;;;;;;;;;;;-9.58;52.39;97588.47;6372158;27;19927;-64
2021/12/31 08:27:58;;;;;;;;;;;;;;;-9.73;52.64;97580.47;6371570;27;19927;-63
2021/12/31 08:30:59;;;;;;;;;;;;;;;-9.69;52.88;97589.88;6353433;27;19931;-64
2021/12/31 08:34:03;;;;;;;;;;;;;;;-9.81;53.88;97579.38;6372061;27;19924;-64
2021/12/31 08:37:08;;;;;;;;;;;;;;;-9.85;53.83;97578.47;6371902;27;19923;-64
2021/12/31 08:40:12;;;;;;;;;;;;;;;-9.65;53.32;97581.50;6370683;27;19928;-64
2021/12/31 08:43:16;;;;;;;;;;;;;;;-9.72;53.53;97566.88;6370962;27;19923;-64
2021/12/31 08:46:19;;;;;;;;;;;;;;;-9.55;52.97;97557.97;6371524;27;19923;-64
2021/12/31 08:49:24;;;;;;;;;;;;;;;-9.79;53.51;97552.28;6371314;27;20064;-63
2021/12/31 08:52:28;;;;;;;;;;;;;;;-9.44;52.90;97560.78;6371543;27;19930;-63
2021/12/31 08:55:29;;;;;;;;;;;;;;;-9.41;52.75;97549.81;6370752;27;19927;-63
2021/12/31 08:58:35;;;;;;;;;;;;;;;-9.47;52.65;97544.59;6371457;28;20350;-64
2021/12/31 09:01:36;;;;;;;;;;;;;;;-9.57;53.19;97554.53;6369973;28;19923;-64
2021/12/31 09:04:39;;;;;;;;;;;;;;;-9.43;53.38;97556.56;6371632;28;19923;-65
2021/12/31 09:07:43;;;;;;;;;;;;;;;-9.25;53.24;97551.91;6371467;28;19927;-63
2021/12/31 09:10:44;;;;;;;;;;;;;;;-9.10;52.44;97539.50;6371058;28;20385;-65
2021/12/31 09:13:48;;;;;;;;;;;;;;;-8.89;52.39;97551.00;6353342;28;20400;-63
2021/12/31 09:16:53;;;;;;;;;;;;;;;-8.74;52.17;97546.25;6371416;28;19923;-64
2021/12/31 09:19:54;;;;;;;;;;;;;;;-8.51;51.72;97538.22;6369944;28;19923;-64
2021/12/31 09:23:00;;;;;;;;;;;;;;;-8.60;51.76;97529.53;6373825;27;20380;-64
2021/12/31 09:26:04;;;;;;;;;;;;;;;-8.16;51.05;97511.63;6375563;27;20061;-64
2021/12/31 09:29:05;;;;;;;;;;;;;;;-8.25;50.34;97514.03;6375371;27;19923;-64
2021/12/31 09:32:08;;;;;;;;;;;;;;;-8.40;50.81;97518.88;6375731;27;20010;-63
2021/12/31 09:35:11;;;;;;;;;;;;;;;-8.38;50.57;97519.72;6375867;27;20395;-64
2021/12/31 09:38:14;;;;;;;;;;;;;;;-8.25;49.83;97521.69;6375883;27;20012;-65
2021/12/31 09:41:18;;;;;;;;;;;;;;;-7.90;49.45;97511.25;6375838;27;19927;-64
2021/12/31 09:44:23;;;;;;;;;;;;;;;-7.13;48.31;97499.69;6375874;27;19923;-64
2021/12/31 09:47:24;;;;;;;;;;;;;;;-7.14;47.74;97498.00;6375584;27;19923;-64
2021/12/31 09:50:28;;;;;;;;;;;;;;;-7.00;48.60;97504.16;6374677;27;19935;-63
2021/12/31 09:53:33;;;;;;;;;;;;;;;-6.41;47.16;97504.06;6375114;27;19928;-63
2021/12/31 09:56:39;;;;;;;;;;;;;;;-5.91;46.92;97488.38;6340036;27;19941;-64
2021/12/31 09:59:46;;;;;;;;;;;;;;;-5.43;46.36;97483.66;6375698;27;20302;-63
2021/12/31 10:03:07;;;;;;;;;;;;;;;-4.85;44.93;97493.44;6374829;27;19923;-63
2021/12/31 10:06:10;;;;;;;;;;;;;;;-4.17;43.39;97499.75;6374720;27;20381;-64
2021/12/31 10:09:11;;;;;;;;;;;;;;;-2.32;40.70;97502.25;6374324;27;19930;-64
2021/12/31 10:12:15;;;;;;;;;;;;;;;-1.09;37.42;97506.66;6375194;27;19992;-64
2021/12/31 10:15:17;;;;;;;;;;;;;;;-2.18;37.31;97503.91;6373237;27;19923;-64
2021/12/31 10:18:27;;;;;;;;;;;;;;;-3.22;40.83;97494.72;6375077;27;19930;-63
2021/12/31 10:21:50;;;;;;;;;;;;;;;-4.13;42.56;97502.34;6374398;27;20517;-64
2021/12/31 10:24:51;;;;;;;;;;;;;;;-4.96;43.51;97496.78;6373606;27;19923;-64
2021/12/31 10:28:07;;;;;;;;;;;;;;;-5.74;46.37;97497.94;6374302;27;19938;-64
2021/12/31 10:31:09;;;;;;;;;;;;;;;-6.34;46.76;97505.00;6374634;27;19919;-64
2021/12/31 10:34:29;;;;;;;;;;;;;;;-6.92;47.75;97502.56;6372595;27;19923;-65
2021/12/31 10:37:40;;;;;;;;;;;;;;;-7.61;48.98;97506.66;6374689;27;19923;-65
2021/12/31 10:40:47;;;;;;;;;;;;;;;-7.79;49.29;97499.53;6374562;27;19924;-64
2021/12/31 10:43:56;;;;;;;;;;;;;;;-8.08;50.00;97495.63;6374526;27;19923;-64
2021/12/31 10:47:07;;;;;;;;;;;;;;;-8.31;50.22;97495.19;6373973;27;19923;-65
2021/12/31 10:50:14;;;;;;;;;;;;;;;-8.71;50.73;97495.31;6374526;27;19923;-64
2021/12/31 10:53:29;;;;;;;;;;;;;;;-8.83;51.37;97505.22;6373633;27;19923;-63
2021/12/31 10:56:38;;;;;;;;;;;;;;;-8.85;51.29;97496.69;6374307;27;20404;-64
2021/12/31 10:59:44;;;;;;;;;;;;;;;-8.94;51.10;97501.63;6374219;27;19928;-64
2021/12/31 11:02:46;;;;;;;;;;;;;;;-9.15;51.45;97492.66;6373439;27;20300;-64
2021/12/31 11:05:48;;;;;;;;;;;;;;;-9.50;51.90;97494.41;6373047;27;20289;-64
2021/12/31 11:08:50;;;;;;;;;;;;;;;-9.63;52.22;97498.34;6374049;27;20438;-64
2021/12/31 11:11:54;;;;;;;;;;;;;;;-9.83;52.62;97504.63;6372944;27;19930;-64
2021/12/31 11:14:56;;;;;;;;;;;;;;;-9.97;52.87;97492.41;6373041;27;19924;-63
2021/12/31 11:17:57;;;;;;;;;;;;;;;-10.15;53.20;97497.06;6373809;27;19946;-64
2021/12/31 11:21:01;;;;;;;;;;;;;;;-10.32;53.47;97495.78;6373263;27;19924;-64
2021/12/31 11:24:21;;;;;;;;;;;;;;;-10.33;53.58;97494.03;6372935;27;19923;-63
2021/12/31 11:27:30;;;;;;;;;;;;;;;-10.68;54.26;97483.78;6372624;27;19926;-64
2021/12/31 11:30:38;;;;;;;;;;;;;;;-10.96;54.40;97488.09;6373321;27;20451;-64
2021/12/31 11:33:43;;;;;;;;;;;;;;;-11.06;54.97;97480.16;6373107;27;19923;-63
2021/12/31 11:36:51;;;;;;;;;;;;;;;-10.99;55.05;97467.66;6373066;27;19931;-63
2021/12/31 11:40:12;;;;;;;;;;;;;;;-11.07;55.52;97474.19;6373371;27;19927;-64
2021/12/31 11:43:22;;;;;;;;;;;;;;;-11.32;56.24;97457.41;6372895;27;19923;-65
2021/12/31 11:46:31;;;;;;;;;;;;;;;-11.50;56.42;97465.31;6371776;27;19923;-64
2021/12/31 11:49:35;;;;;;;;;;;;;;;-11.72;56.77;97466.31;6373209;27;19923;-64
2021/12/31 11:52:56;;;;;;;;;;;;;;;-11.76;56.65;97465.38;6372274;27;19927;-64
2021/12/31 11:55:58;;;;;;;;;;;;;;;-11.96;57.45;97471.53;6372013;27;20417;-63
2021/12/31 11:59:24;;;;;;;;;;;;;;;-11.81;58.07;97473.66;6372022;27;19929;-63
2021/12/31 12:02:32;;;;;;;;;;;;;;;-12.07;58.27;97473.72;6358298;27;19923;-64
2021/12/31 12:05:41;;;;;;;;;;;;;;;-12.06;58.40;97466.94;6372565;27;19930;-63
2021/12/31 12:08:51;;;;;;;;;;;;;;;-12.32;59.32;97464.41;6372251;27;19923;-63
2021/12/31 12:12:15;;;;;;;;;;;;;;;-12.45;59.34;97458.09;6372469;27;19927;-63
2021/12/31 12:15:19;;;;;;;;;;;;;;;-12.56;59.24;97463.59;6372171;27;19923;-64
2021/12/31 12:18:41;;;;;;;;;;;;;;;-12.71;59.25;97462.28;6372108;27;19923;-63
2021/12/31 12:21:51;;;;;;;;;;;;;;;-12.86;60.09;97464.25;6370883;27;19928;-63
2021/12/31 12:24:56;;;;;;;;;;;;;;;-12.92;60.36;97461.50;6371128;27;20216;-65
2021/12/31 12:27:57;;;;;;;;;;;;;;;-12.93;60.63;97467.38;6372192;27;19923;-62
2021/12/31 12:31:05;;;;;;;;;;;;;;;-12.89;60.49;97465.00;6371504;27;19934;-63
2021/12/31 12:34:08;;;;;;;;;;;;;;;-12.82;60.49;97468.63;6370712;27;20308;-64
2021/12/31 12:37:14;;;;;;;;;;;;;;;-12.94;61.18;97458.03;6371490;27;19927;-63
2021/12/31 12:40:15;;;;;;;;;;;;;;;-13.15;61.48;97461.53;6371307;27;19924;-65
2021/12/31 12:43:20;;;;;;;;;;;;;;;-13.26;61.25;97460.31;6371948;27;20259;-65
2021/12/31 12:46:24;;;;;;;;;;;;;;;-13.33;61.58;97454.94;6371867;27;20297;-64
2021/12/31 12:49:26;;;;;;;;;;;;;;;-13.31;61.79;97456.72;6371088;27;19930;-64
2021/12/31 12:52:27;;;;;;;;;;;;;;;-13.35;62.24;97449.84;6370706;27;19931;-64
2021/12/31 12:55:29;;;;;;;;;;;;;;;-13.44;61.98;97449.50;6371491;27;19923;-65
2021/12/31 12:58:30;;;;;;;;;;;;;;;-13.51;62.06;97447.53;6369987;27;19924;-65
2021/12/31 13:01:33;;;;;;;;;;;;;;;-13.53;62.24;97454.19;6370424;28;20377;-65
2021/12/31 13:04:34;;;;;;;;;;;;;;;-13.48;62.63;97447.66;6370517;28;19923;-64
2021/12/31 13:07:35;;;;;;;;;;;;;;;-13.42;62.94;97448.72;6370831;28;19931;-64
2021/12/31 13:10:39;;;;;;;;;;;;;;;-13.49;62.69;97451.00;6370707;28;20316;-63
2021/12/31 13:13:40;;;;;;;;;;;;;;;-13.60;63.24;97438.78;6371570;28;19924;-66
2021/12/31 13:16:43;;;;;;;;;;;;;;;-13.59;63.19;97449.75;6371484;28;19923;-65
2021/12/31 13:19:47;;;;;;;;;;;;;;;-13.69;62.98;97446.03;6371359;28;20442;-68
2021/12/31 13:22:53;;;;;;;;;;;;;;;-13.63;63.72;97448.78;6370497;28;19927;-66
2021/12/31 13:25:55;;;;;;;;;;;;;;;-13.50;63.29;97440.00;6370492;28;19929;-64
2021/12/31 13:29:03;;;;;;;;;;;;;;;-13.59;63.31;97445.56;6371213;28;20307;-65
2021/12/31 13:32:08;;;;;;;;;;;;;;;-13.73;63.47;97441.66;6370216;28;19931;-64
2021/12/31 13:35:14;;;;;;;;;;;;;;;-13.73;64.09;97456.81;6371250;28;19927;-66
2021/12/31 13:38:15;;;;;;;;;;;;;;;-13.71;63.93;97455.22;6370379;28;19923;-64
2021/12/31 13:41:21;;;;;;;;;;;;;;;-13.65;64.37;97449.53;6371254;28;19952;-64
2021/12/31 13:44:23;;;;;;;;;;;;;;;-13.79;64.48;97451.53;6352570;28;20386;-64
2021/12/31 13:47:27;;;;;;;;;;;;;;;-13.79;64.51;97451.53;6369927;28;19931;-64
2021/12/31 13:50:31;;;;;;;;;;;;;;;-13.77;64.62;97437.28;6371288;28;20010;-64
2021/12/31 13:53:32;;;;;;;;;;;;;;;-13.78;64.64;97443.16;6371050;28;20037;-63
2021/12/31 13:56:38;;;;;;;;;;;;;;;-13.72;64.86;97456.03;6370089;28;19927;-64
2021/12/31 13:59:41;;;;;;;;;;;;;;;-13.74;65.07;97445.00;6370803;28;19924;-64
2021/12/31 14:02:43;;;;;;;;;;;;;;;-13.78;65.16;97435.56;6370863;28;19923;-63
2021/12/31 14:05:59;;;;;;;;;;;;;;;-13.74;65.26;97429.81;6370936;28;19923;-63
2021/12/31 14:09:05;;;;;;;;;;;;;;;-13.83;65.21;97424.41;6373618;27;20318;-64
2021/12/31 14:12:08;;;;;;;;;;;;;;;-13.63;65.20;97420.09;6375462;27;20017;-64
2021/12/31 14:15:10;;;;;;;;;;;;;;;-13.75;65.09;97423.03;6375269;27;19927;-64
2021/12/31 14:18:13;;;;;;;;;;;;;;;-13.61;65.23;97416.81;6374472;27;20430;-65
2021/12/31 14:21:14;;;;;;;;;;;;;;;-13.60;64.77;97413.47;6374381;27;19930;-65
2021/12/31 14:24:18;;;;;;;;;;;;;;;-13.83;65.28;97410.09;6375222;27;19931;-63
2021/12/31 14:27:21;;;;;;;;;;;;;;;-13.93;65.35;97402.94;6374945;27;20300;-64
2021/12/31 14:30:27;;;;;;;;;;;;;;;-13.96;65.74;97401.97;6375008;27;19923;-64
2021/12/31 14:33:28;;;;;;;;;;;;;;;-14.06;65.93;97401.63;6373197;27;19931;-63
2021/12/31 14:36:29;;;;;;;;;;;;;;;-14.02;65.95;97398.38;6374764;27;20390;-63
2021/12/31 14:39:31;;;;;;;;;;;;;;;-14.13;66.47;97394.56;6374758;27;19919;-64
2021/12/31 14:42:32;;;;;;;;;;;;;;;-14.13;66.44;97389.53;6374437;27;20393;-64
2021/12/31 14:45:33;;;;;;;;;;;;;;;-14.20;66.85;97390.09;6374669;27;19923;-64
2021/12/31 14:48:34;;;;;;;;;;;;;;;-13.96;67.09;97386.78;6374541;27;19926;-65
2021/12/31 14:51:38;;;;;;;;;;;;;;;-14.09;66.48;97386.31;6373883;27;19923;-64
2021/12/31 14:54:40;;;;;;;;;;;;;;;-14.10;67.04;97387.09;6373770;27;19923;-64
2021/12/31 14:57:41;;;;;;;;;;;;;;;-13.81;66.48;97367.16;6374502;27;20407;-64
2021/12/31 15:00:42;;;;;;;;;;;;;;;-13.99;67.06;97366.44;6374562;27;19923;-63
2021/12/31 15:03:44;;;;;;;;;;;;;;;-14.04;67.41;97369.69;6374056;27;20336;-64
2021/12/31 15:06:50;;;;;;;;;;;;;;;-14.03;67.48;97376.44;6374022;27;19923;-63
2021/12/31 15:09:51;;;;;;;;;;;;;;;-14.04;67.55;97372.19;6373688;27;19923;-64
2021/12/31 15:12:57;;;;;;;;;;;;;;;-14.04;67.43;97369.69;6373560;27;19923;-63
2021/12/31 15:16:02;;;;;;;;;;;;;;;-14.07;67.74;97374.59;6373159;27;19963;-64
2021/12/31 15:19:03;;;;;;;;;;;;;;;-14.14;67.52;97365.06;6372858;27;19930;-64
2021/12/31 15:22:05;;;;;;;;;;;;;;;-14.16;67.70;97359.06;6372409;27;20319;-64
2021/12/31 15:25:06;;;;;;;;;;;;;;;-14.17;67.53;97357.34;6372589;27;19924;-64
2021/12/31 15:28:10;;;;;;;;;;;;;;;-14.17;67.94;97352.28;6373746;27;19923;-64
2021/12/31 15:31:15;;;;;;;;;;;;;;;-14.22;67.99;97346.19;6373501;27;19923;-65
2021/12/31 15:34:16;;;;;;;;;;;;;;;-14.25;67.52;97346.06;6372364;27;19924;-63
2021/12/31 15:37:17;;;;;;;;;;;;;;;-14.25;68.08;97338.50;6372840;27;19924;-64
2021/12/31 15:40:23;;;;;;;;;;;;;;;-14.42;67.79;97347.09;6372047;27;19957;-64
2021/12/31 15:43:24;;;;;;;;;;;;;;;-14.42;68.04;97347.09;6372534;27;19924;-63
2021/12/31 15:46:27;;;;;;;;;;;;;;;-14.48;67.95;97346.03;6373066;27;20281;-63
2021/12/31 15:49:31;;;;;;;;;;;;;;;-14.49;67.60;97344.31;6373235;27;19923;-63